createdAt,value
2023-04-23T00:00:56.220Z,12.38
2023-04-23T00:01:55.277Z,12.38
2023-04-23T00:02:54.814Z,12.26
2023-04-23T00:03:56.332Z,12.27
2023-04-23T00:04:56.338Z,12.30
2023-04-23T00:05:56.156Z,12.33
2023-04-23T00:06:56.131Z,12.31
2023-04-23T00:07:56.101Z,12.31
2023-04-23T00:08:56.105Z,12.31
2023-04-23T00:09:56.084Z,12.37
2023-04-23T00:10:56.084Z,12.31
2023-04-23T00:11:56.062Z,12.29
2023-04-23T00:12:58.061Z,12.29
2023-04-23T00:13:56.059Z,12.21
2023-04-23T00:14:56.010Z,12.27
2023-04-23T00:15:56.068Z,12.30
2023-04-23T00:16:56.018Z,12.29
2023-04-23T00:17:56.047Z,12.33
2023-04-23T00:18:55.960Z,12.37
2023-04-23T00:19:55.950Z,12.37
2023-04-23T00:20:55.936Z,12.39
2023-04-23T00:21:55.930Z,12.39
2023-04-23T00:22:55.907Z,12.37
2023-04-23T00:23:55.897Z,12.20
2023-04-23T00:24:55.899Z,12.21
2023-04-23T00:25:55.880Z,12.27
2023-04-23T00:26:55.868Z,12.19
2023-04-23T00:27:55.827Z,12.21
2023-04-23T00:28:55.814Z,12.19
2023-04-23T00:29:55.826Z,12.23
2023-04-23T00:30:55.808Z,12.20
2023-04-23T00:31:55.820Z,12.16
2023-04-23T00:32:55.814Z,12.16
2023-04-23T00:33:55.758Z,12.13
2023-04-23T00:34:54.283Z,12.19
2023-04-23T00:35:55.752Z,12.11
2023-04-23T00:36:55.723Z,12.16
2023-04-23T00:37:55.709Z,12.20
2023-04-23T00:38:55.684Z,12.23
2023-04-23T00:39:55.681Z,12.20
2023-04-23T00:40:55.672Z,12.13
2023-04-23T00:41:55.657Z,12.15
2023-04-23T00:42:55.643Z,12.12
2023-04-23T00:43:55.622Z,12.13
2023-04-23T00:44:55.626Z,12.11
2023-04-23T00:45:55.636Z,12.15
2023-04-23T00:46:55.588Z,12.15
2023-04-23T00:47:55.662Z,12.19
2023-04-23T00:48:55.552Z,12.16
2023-04-23T00:49:55.542Z,12.09
2023-04-23T00:50:54.076Z,12.08
2023-04-23T00:51:55.516Z,12.09
2023-04-23T00:52:54.531Z,12.11
2023-04-23T00:53:54.539Z,12.02
2023-04-23T00:54:54.546Z,12.05
2023-04-23T00:55:55.471Z,12.05
2023-04-23T00:56:55.449Z,12.08
2023-04-23T00:57:54.550Z,12.08
2023-04-23T00:58:54.540Z,12.06
2023-04-23T00:59:55.413Z,12.08
2023-04-23T01:00:55.403Z,12.09
2023-04-23T01:01:55.389Z,12.09
2023-04-23T01:02:55.506Z,12.04
2023-04-23T01:03:55.665Z,12.01
2023-04-23T01:04:55.350Z,12.01
2023-04-23T01:05:54.025Z,12.05
2023-04-23T01:06:54.066Z,12.04
2023-04-23T01:07:55.305Z,11.99
2023-04-23T01:08:55.290Z,11.96
2023-04-23T01:09:55.286Z,11.99
2023-04-23T01:10:55.270Z,11.94
2023-04-23T01:11:55.247Z,11.99
2023-04-23T01:12:55.235Z,12.01
2023-04-23T01:13:54.253Z,12.05
2023-04-23T01:14:55.203Z,12.06
2023-04-23T01:15:55.206Z,12.04
2023-04-23T01:16:55.190Z,12.04
2023-04-23T01:17:54.483Z,12.02
2023-04-23T01:18:53.719Z,12.02
2023-04-23T01:19:55.155Z,11.97
2023-04-23T01:20:55.145Z,11.96
2023-04-23T01:21:53.683Z,11.97
2023-04-23T01:22:55.116Z,11.97
2023-04-23T01:23:55.101Z,12.02
2023-04-23T01:24:53.705Z,12.04
2023-04-23T01:25:55.089Z,12.04
2023-04-23T01:26:53.636Z,12.04
2023-04-23T01:27:55.041Z,12.08
2023-04-23T01:28:55.032Z,12.06
2023-04-23T01:29:53.569Z,12.04
2023-04-23T01:30:53.571Z,12.02
2023-04-23T01:31:55.005Z,11.99
2023-04-23T01:32:53.567Z,11.94
2023-04-23T01:33:54.950Z,11.94
2023-04-23T01:34:53.498Z,11.93
2023-04-23T01:35:53.567Z,11.97
2023-04-23T01:36:54.932Z,11.94
2023-04-23T01:37:54.896Z,11.93
2023-04-23T01:38:54.878Z,11.96
2023-04-23T01:39:54.876Z,11.94
2023-04-23T01:40:54.856Z,12.02
2023-04-23T01:41:54.854Z,12.04
2023-04-23T01:42:54.828Z,11.99
2023-04-23T01:43:54.815Z,11.90
2023-04-23T01:44:54.800Z,11.90
2023-04-23T01:45:53.390Z,11.99
2023-04-23T01:46:53.528Z,11.96
2023-04-23T01:47:54.798Z,11.97
2023-04-23T01:48:54.746Z,11.96
2023-04-23T01:49:54.732Z,11.90
2023-04-23T01:50:54.732Z,11.93
2023-04-23T01:51:54.708Z,11.93
2023-04-23T01:52:54.688Z,11.96
2023-04-23T01:53:54.671Z,11.99
2023-04-23T01:54:54.670Z,11.89
2023-04-23T01:55:54.638Z,11.89
2023-04-23T01:56:54.636Z,11.87
2023-04-23T01:57:54.618Z,11.89
2023-04-23T01:58:54.607Z,11.93
2023-04-23T01:59:54.593Z,11.90
2023-04-23T02:00:54.582Z,11.94
2023-04-23T02:01:53.412Z,11.93
2023-04-23T02:02:53.441Z,11.90
2023-04-23T02:03:54.635Z,11.94
2023-04-23T02:04:54.527Z,11.96
2023-04-23T02:05:54.529Z,11.99
2023-04-23T02:06:53.384Z,12.01
2023-04-23T02:07:54.488Z,12.01
2023-04-23T02:08:54.476Z,12.01
2023-04-23T02:09:53.382Z,11.99
2023-04-23T02:10:53.308Z,11.99
2023-04-23T02:11:54.432Z,11.93
2023-04-23T02:12:54.407Z,11.89
2023-04-23T02:13:54.389Z,11.87
2023-04-23T02:14:54.380Z,11.87
2023-04-23T02:15:54.401Z,11.93
2023-04-23T02:16:54.359Z,11.89
2023-04-23T02:17:53.430Z,11.86
2023-04-23T02:18:53.395Z,11.82
2023-04-23T02:19:53.379Z,11.78
2023-04-23T02:20:53.380Z,11.82
2023-04-23T02:21:54.289Z,11.80
2023-04-23T02:22:54.281Z,11.82
2023-04-23T02:23:54.269Z,11.78
2023-04-23T02:24:54.252Z,11.75
2023-04-23T02:25:53.402Z,11.78
2023-04-23T02:26:54.239Z,11.82
2023-04-23T02:27:54.218Z,11.83
2023-04-23T02:28:54.198Z,11.83
2023-04-23T02:29:54.185Z,11.89
2023-04-23T02:30:54.168Z,11.89
2023-04-23T02:31:54.255Z,11.85
2023-04-23T02:32:54.225Z,11.82
2023-04-23T02:33:54.129Z,11.83
2023-04-23T02:34:54.115Z,11.82
2023-04-23T02:35:54.110Z,11.80
2023-04-23T02:36:54.101Z,11.83
2023-04-23T02:37:54.076Z,11.77
2023-04-23T02:38:54.053Z,11.86
2023-04-23T02:39:54.056Z,11.89
2023-04-23T02:40:54.035Z,11.82
2023-04-23T02:41:52.573Z,11.78
2023-04-23T02:42:54.008Z,11.82
2023-04-23T02:43:54.004Z,11.78
2023-04-23T02:44:53.983Z,11.82
2023-04-23T02:45:53.967Z,11.77
2023-04-23T02:46:54.028Z,11.72
2023-04-23T02:47:54.020Z,11.74
2023-04-23T02:48:53.934Z,11.75
2023-04-23T02:49:53.911Z,11.74
2023-04-23T02:50:53.901Z,11.75
2023-04-23T02:51:53.910Z,11.68
2023-04-23T02:52:53.878Z,11.65
2023-04-23T02:53:53.862Z,11.65
2023-04-23T02:54:53.854Z,11.70
2023-04-23T02:55:53.836Z,11.72
2023-04-23T02:56:53.841Z,11.72
2023-04-23T02:57:52.346Z,11.72
2023-04-23T02:58:53.778Z,11.70
2023-04-23T02:59:53.774Z,11.74
2023-04-23T03:00:53.790Z,11.74
2023-04-23T03:01:53.768Z,11.71
2023-04-23T03:02:53.825Z,11.67
2023-04-23T03:03:53.837Z,11.70
2023-04-23T03:04:53.703Z,11.71
2023-04-23T03:05:53.701Z,11.71
2023-04-23T03:06:53.680Z,11.72
2023-04-23T03:07:53.673Z,11.70
2023-04-23T03:08:53.652Z,11.77
2023-04-23T03:09:52.666Z,11.75
2023-04-23T03:10:52.311Z,11.74
2023-04-23T03:11:53.628Z,11.75
2023-04-23T03:12:53.107Z,11.71
2023-04-23T03:13:52.666Z,11.68
2023-04-23T03:14:52.674Z,11.70
2023-04-23T03:15:53.560Z,11.68
2023-04-23T03:16:53.627Z,11.71
2023-04-23T03:17:52.755Z,11.74
2023-04-23T03:18:52.661Z,11.75
2023-04-23T03:19:53.497Z,11.71
2023-04-23T03:20:53.494Z,11.72
2023-04-23T03:21:52.665Z,11.67
2023-04-23T03:22:53.463Z,11.67
2023-04-23T03:23:53.459Z,11.68
2023-04-23T03:24:52.673Z,11.72
2023-04-23T03:25:51.965Z,11.74
2023-04-23T03:26:53.422Z,11.75
2023-04-23T03:27:53.407Z,11.72
2023-04-23T03:28:53.384Z,11.71
2023-04-23T03:29:52.066Z,11.72
2023-04-23T03:30:52.065Z,11.72
2023-04-23T03:31:53.363Z,11.68
2023-04-23T03:32:53.409Z,11.68
2023-04-23T03:33:53.313Z,11.68
2023-04-23T03:34:53.307Z,11.72
2023-04-23T03:35:53.286Z,11.71
2023-04-23T03:36:53.277Z,11.71
2023-04-23T03:37:52.295Z,11.74
2023-04-23T03:38:53.250Z,11.72
2023-04-23T03:39:53.242Z,11.75
2023-04-23T03:40:53.226Z,11.75
2023-04-23T03:41:53.205Z,11.77
2023-04-23T03:42:53.214Z,11.74
2023-04-23T03:43:53.188Z,11.72
2023-04-23T03:44:53.171Z,11.71
2023-04-23T03:45:53.239Z,11.65
2023-04-23T03:46:53.128Z,11.70
2023-04-23T03:47:53.175Z,11.71
2023-04-23T03:48:53.145Z,11.71
2023-04-23T03:49:53.253Z,11.72
2023-04-23T03:50:53.083Z,11.72
2023-04-23T03:51:53.068Z,11.68
2023-04-23T03:52:53.056Z,11.68
2023-04-23T03:53:53.034Z,11.62
2023-04-23T03:54:53.028Z,11.65
2023-04-23T03:55:53.015Z,11.72
2023-04-23T03:56:53.009Z,11.70
2023-04-23T03:57:52.987Z,11.65
2023-04-23T03:58:52.967Z,11.62
2023-04-23T03:59:52.966Z,11.70
2023-04-23T04:00:52.938Z,11.68
2023-04-23T04:01:52.926Z,11.71
2023-04-23T04:02:53.105Z,11.75
2023-04-23T04:03:53.162Z,11.74
2023-04-23T04:04:53.105Z,11.75
2023-04-23T04:05:52.884Z,11.75
2023-04-23T04:06:52.853Z,11.71
2023-04-23T04:07:52.859Z,11.72
2023-04-23T04:08:52.839Z,11.75
2023-04-23T04:09:51.495Z,11.80
2023-04-23T04:10:52.811Z,11.82
2023-04-23T04:11:53.351Z,11.83
2023-04-23T04:12:52.802Z,11.85
2023-04-23T04:13:52.777Z,11.77
2023-04-23T04:14:52.769Z,11.80
2023-04-23T04:15:52.871Z,11.80
2023-04-23T04:16:52.755Z,11.74
2023-04-23T04:17:52.755Z,11.78
2023-04-23T04:18:55.068Z,11.80
2023-04-23T04:19:52.700Z,11.77
2023-04-23T04:20:52.725Z,11.75
2023-04-23T04:21:51.488Z,11.72
2023-04-23T04:22:51.494Z,11.74
2023-04-23T04:23:52.644Z,11.71
2023-04-23T04:24:51.492Z,11.72
2023-04-23T04:25:51.165Z,11.71
2023-04-23T04:26:52.598Z,11.74
2023-04-23T04:27:52.592Z,11.75
2023-04-23T04:28:52.560Z,11.75
2023-04-23T04:29:51.489Z,11.77
2023-04-23T04:30:52.543Z,11.80
2023-04-23T04:31:52.698Z,11.85
2023-04-23T04:32:52.569Z,11.83
2023-04-23T04:33:51.497Z,11.80
2023-04-23T04:34:52.476Z,11.78
2023-04-23T04:35:51.496Z,11.75
2023-04-23T04:36:52.458Z,11.78
2023-04-23T04:37:51.498Z,11.82
2023-04-23T04:38:51.505Z,11.83
2023-04-23T04:39:50.997Z,11.85
2023-04-23T04:40:52.403Z,11.87
2023-04-23T04:41:52.387Z,11.86
2023-04-23T04:42:52.383Z,11.87
2023-04-23T04:43:52.407Z,11.89
2023-04-23T04:44:52.353Z,11.89
2023-04-23T04:45:52.375Z,11.90
2023-04-23T04:46:52.350Z,11.87
2023-04-23T04:47:52.338Z,11.86
2023-04-23T04:48:52.281Z,11.86
2023-04-23T04:49:51.509Z,11.90
2023-04-23T04:50:52.261Z,11.93
2023-04-23T04:51:51.324Z,11.85
2023-04-23T04:52:52.235Z,11.83
2023-04-23T04:53:52.230Z,11.83
2023-04-23T04:54:52.212Z,11.80
2023-04-23T04:55:52.204Z,11.83
2023-04-23T04:56:52.178Z,11.90
2023-04-23T04:57:50.716Z,11.93
2023-04-23T04:58:52.157Z,11.96
2023-04-23T04:59:52.153Z,11.93
2023-04-23T05:00:52.240Z,11.82
2023-04-23T05:01:52.114Z,11.85
2023-04-23T05:02:52.242Z,11.85
2023-04-23T05:03:52.294Z,11.83
2023-04-23T05:04:52.066Z,11.86
2023-04-23T05:05:52.054Z,11.82
2023-04-23T05:06:52.041Z,11.87
2023-04-23T05:07:52.043Z,11.87
2023-04-23T05:08:52.021Z,11.94
2023-04-23T05:09:52.002Z,11.99
2023-04-23T05:10:51.989Z,12.01
2023-04-23T05:11:51.992Z,11.87
2023-04-23T05:12:52.102Z,11.94
2023-04-23T05:13:51.949Z,12.01
2023-04-23T05:14:53.003Z,12.06
2023-04-23T05:15:51.933Z,12.09
2023-04-23T05:16:51.939Z,12.13
2023-04-23T05:17:52.006Z,12.13
2023-04-23T05:18:51.886Z,12.09
2023-04-23T05:19:51.870Z,12.09
2023-04-23T05:20:51.857Z,12.05
2023-04-23T05:21:51.841Z,12.06
2023-04-23T05:22:51.847Z,12.11
2023-04-23T05:23:51.900Z,12.15
2023-04-23T05:24:51.824Z,12.21
2023-04-23T05:25:53.739Z,12.12
2023-04-23T05:26:51.777Z,12.11
2023-04-23T05:27:51.765Z,12.15
2023-04-23T05:28:50.815Z,12.15
2023-04-23T05:29:50.814Z,12.16
2023-04-23T05:30:50.841Z,12.08
2023-04-23T05:31:50.848Z,12.06
2023-04-23T05:32:51.715Z,12.09
2023-04-23T05:33:51.675Z,12.11
2023-04-23T05:34:51.666Z,12.16
2023-04-23T05:35:51.645Z,12.08
2023-04-23T05:36:50.381Z,12.06
2023-04-23T05:37:50.853Z,12.04
2023-04-23T05:38:51.616Z,12.08
2023-04-23T05:39:50.850Z,12.12
2023-04-23T05:40:51.587Z,12.13
2023-04-23T05:41:50.830Z,12.06
2023-04-23T05:42:51.573Z,12.08
2023-04-23T05:43:51.558Z,12.05
2023-04-23T05:44:51.555Z,12.05
2023-04-23T05:45:50.838Z,12.05
2023-04-23T05:46:51.502Z,11.99
2023-04-23T05:47:50.849Z,12.04
2023-04-23T05:48:51.473Z,12.08
2023-04-23T05:49:51.459Z,12.01
2023-04-23T05:50:51.441Z,12.08
2023-04-23T05:51:51.435Z,12.09
2023-04-23T05:52:51.411Z,12.06
2023-04-23T05:53:51.414Z,12.05
2023-04-23T05:54:51.387Z,12.12
2023-04-23T05:55:51.559Z,12.11
2023-04-23T05:56:53.480Z,12.09
2023-04-23T05:57:51.349Z,12.13
2023-04-23T05:58:51.346Z,12.15
2023-04-23T05:59:51.316Z,12.15
2023-04-23T06:00:50.361Z,12.13
2023-04-23T06:01:51.285Z,12.13
2023-04-23T06:02:51.366Z,12.11
2023-04-23T06:03:51.569Z,12.16
2023-04-23T06:04:51.363Z,12.19
2023-04-23T06:05:51.307Z,12.20
2023-04-23T06:06:51.222Z,12.15
2023-04-23T06:07:51.219Z,12.08
2023-04-23T06:08:51.208Z,11.87
2023-04-23T06:09:51.173Z,11.96
2023-04-23T06:10:51.163Z,12.01
2023-04-23T06:11:51.148Z,11.97
2023-04-23T06:12:51.132Z,11.86
2023-04-23T06:13:51.135Z,11.89
2023-04-23T06:14:51.122Z,12.01
2023-04-23T06:15:51.157Z,11.99
2023-04-23T06:16:51.088Z,12.04
2023-04-23T06:17:51.109Z,12.08
2023-04-23T06:18:51.066Z,12.11
2023-04-23T06:19:51.035Z,12.08
2023-04-23T06:20:51.028Z,12.04
2023-04-23T06:21:51.006Z,12.02
2023-04-23T06:22:50.994Z,12.08
2023-04-23T06:23:50.994Z,12.04
2023-04-23T06:24:50.962Z,12.12
2023-04-23T06:25:50.951Z,12.19
2023-04-23T06:26:50.960Z,12.11
2023-04-23T06:27:50.928Z,12.24
2023-04-23T06:28:50.923Z,12.31
2023-04-23T06:29:50.893Z,12.24
2023-04-23T06:30:50.889Z,12.11
2023-04-23T06:31:50.899Z,12.11
2023-04-23T06:32:49.639Z,12.20
2023-04-23T06:33:49.577Z,12.29
2023-04-23T06:35:00.956Z,12.12
2023-04-23T06:35:50.862Z,12.06
2023-04-23T06:36:49.371Z,12.05
2023-04-23T06:37:50.836Z,12.04
2023-04-23T06:38:51.289Z,12.16
2023-04-23T06:39:50.815Z,12.19
2023-04-23T06:40:49.486Z,12.12
2023-04-23T06:41:49.474Z,12.09
2023-04-23T06:42:50.790Z,12.13
2023-04-23T06:43:50.791Z,12.16
2023-04-23T06:44:49.588Z,12.08
2023-04-23T06:45:49.583Z,12.12
2023-04-23T06:46:50.767Z,12.16
2023-04-23T06:47:50.654Z,12.23
2023-04-23T06:48:50.643Z,12.21
2023-04-23T06:49:49.594Z,12.09
2023-04-23T06:50:50.614Z,12.12
2023-04-23T06:51:49.592Z,12.24
2023-04-23T06:52:50.584Z,12.30
2023-04-23T06:53:50.572Z,12.31
2023-04-23T06:54:50.553Z,12.15
2023-04-23T06:55:49.587Z,12.12
2023-04-23T06:56:49.591Z,12.26
2023-04-23T06:57:50.506Z,12.34
2023-04-23T06:58:50.506Z,12.42
2023-04-23T06:59:49.156Z,12.26
2023-04-23T07:00:50.485Z,12.24
2023-04-23T07:01:50.467Z,12.23
2023-04-23T07:02:50.512Z,12.16
2023-04-23T07:03:50.510Z,12.21
2023-04-23T07:04:50.451Z,12.12
2023-04-23T07:05:50.403Z,12.21
2023-04-23T07:06:50.396Z,12.29
2023-04-23T07:07:50.388Z,12.31
2023-04-23T07:08:50.385Z,12.15
2023-04-23T07:09:50.357Z,12.09
2023-04-23T07:10:50.354Z,12.05
2023-04-23T07:11:50.342Z,12.13
2023-04-23T07:12:48.890Z,12.19
2023-04-23T07:13:50.310Z,12.04
2023-04-23T07:14:50.300Z,12.15
2023-04-23T07:15:50.272Z,12.23
2023-04-23T07:16:50.347Z,12.30
2023-04-23T07:17:50.266Z,12.29
2023-04-23T07:18:50.261Z,12.21
2023-04-23T07:19:50.238Z,12.26
2023-04-23T07:20:48.818Z,12.11
2023-04-23T07:21:50.201Z,12.08
2023-04-23T07:22:50.200Z,12.16
2023-04-23T07:23:50.192Z,12.19
2023-04-23T07:24:50.166Z,12.23
2023-04-23T07:25:48.692Z,12.21
2023-04-23T07:26:50.130Z,12.24
2023-04-23T07:27:50.123Z,12.33
2023-04-23T07:28:52.554Z,12.39
2023-04-23T07:29:50.105Z,12.29
2023-04-23T07:30:50.083Z,12.33
2023-04-23T07:31:50.070Z,12.46
2023-04-23T07:32:50.067Z,12.52
2023-04-23T07:33:50.070Z,12.57
2023-04-23T07:34:50.026Z,12.52
2023-04-23T07:35:50.015Z,12.46
2023-04-23T07:36:49.987Z,12.52
2023-04-23T07:37:49.980Z,12.62
2023-04-23T07:38:49.978Z,12.56
2023-04-23T07:39:49.969Z,12.64
2023-04-23T07:40:49.941Z,12.75
2023-04-23T07:41:49.926Z,12.89
2023-04-23T07:42:49.922Z,12.88
2023-04-23T07:43:50.163Z,12.84
2023-04-23T07:44:48.888Z,12.74
2023-04-23T07:45:49.891Z,12.84
2023-04-23T07:46:49.873Z,12.82
2023-04-23T07:47:48.911Z,12.99
2023-04-23T07:48:49.848Z,13.04
2023-04-23T07:49:48.889Z,13.00
2023-04-23T07:50:49.819Z,12.92
2023-04-23T07:51:49.796Z,13.06
2023-04-23T07:52:49.782Z,13.14
2023-04-23T07:53:49.769Z,13.25
2023-04-23T07:54:49.772Z,13.41
2023-04-23T07:55:48.891Z,13.55
2023-04-23T07:56:48.962Z,13.63
2023-04-23T07:57:48.260Z,13.63
2023-04-23T07:58:49.708Z,13.62
2023-04-23T07:59:49.779Z,13.84
2023-04-23T08:00:48.211Z,13.74
2023-04-23T08:01:48.767Z,13.70
2023-04-23T08:02:48.304Z,13.29
2023-04-23T08:03:49.167Z,13.33
2023-04-23T08:04:49.844Z,13.55
2023-04-23T08:05:49.619Z,13.67
2023-04-23T08:06:49.612Z,13.70
2023-04-23T08:07:49.580Z,13.67
2023-04-23T08:08:49.551Z,13.70
2023-04-23T08:09:49.555Z,14.12
2023-04-23T08:10:49.540Z,14.16
2023-04-23T08:11:49.515Z,14.04
2023-04-23T08:12:49.512Z,14.16
2023-04-23T08:13:49.489Z,14.21
2023-04-23T08:14:49.488Z,14.24
2023-04-23T08:15:49.517Z,14.42
2023-04-23T08:16:49.440Z,14.46
2023-04-23T08:17:49.482Z,14.38
2023-04-23T08:19:03.716Z,14.27
2023-04-23T08:19:49.448Z,14.01
2023-04-23T08:20:49.396Z,14.07
2023-04-23T08:21:49.373Z,14.12
2023-04-23T08:22:49.370Z,14.09
2023-04-23T08:23:49.370Z,13.89
2023-04-23T08:24:49.354Z,13.74
2023-04-23T08:25:49.330Z,13.65
2023-04-23T08:26:49.322Z,13.67
2023-04-23T08:27:49.307Z,13.71
2023-04-23T08:28:49.291Z,13.77
2023-04-23T08:29:49.275Z,13.88
2023-04-23T08:30:49.284Z,13.83
2023-04-23T08:31:49.297Z,13.83
2023-04-23T08:32:49.276Z,13.79
2023-04-23T08:33:49.085Z,13.73
2023-04-23T08:34:49.243Z,13.80
2023-04-23T08:35:49.201Z,13.71
2023-04-23T08:36:47.747Z,13.83
2023-04-23T08:37:49.164Z,13.80
2023-04-23T08:38:48.904Z,13.67
2023-04-23T08:39:49.243Z,13.92
2023-04-23T08:40:49.129Z,14.13
2023-04-23T08:41:49.125Z,14.35
2023-04-23T08:42:49.098Z,14.44
2023-04-23T08:43:49.079Z,14.80
2023-04-23T08:44:49.088Z,14.72
2023-04-23T08:45:49.090Z,14.84
2023-04-23T08:46:49.090Z,14.56
2023-04-23T08:47:49.121Z,14.44
2023-04-23T08:48:47.564Z,14.47
2023-04-23T08:49:48.997Z,14.46
2023-04-23T08:50:49.005Z,14.78
2023-04-23T08:51:48.984Z,14.78
2023-04-23T08:52:48.971Z,15.13
2023-04-23T08:53:48.945Z,15.48
2023-04-23T08:54:48.936Z,15.89
2023-04-23T08:55:48.937Z,16.22
2023-04-23T08:56:47.445Z,16.63
2023-04-23T08:57:48.898Z,16.38
2023-04-23T08:58:48.906Z,16.16
2023-04-23T08:59:48.872Z,16.38
2023-04-23T09:00:48.898Z,16.42
2023-04-23T09:01:47.711Z,16.58
2023-04-23T09:02:48.991Z,16.26
2023-04-23T09:03:48.919Z,15.93
2023-04-23T09:04:50.256Z,16.26
2023-04-23T09:05:48.796Z,16.59
2023-04-23T09:06:48.760Z,16.55
2023-04-23T09:07:48.761Z,16.85
2023-04-23T09:08:48.768Z,16.56
2023-04-23T09:09:47.728Z,16.34
2023-04-23T09:10:48.718Z,16.04
2023-04-23T09:11:48.720Z,15.46
2023-04-23T09:12:47.729Z,15.20
2023-04-23T09:13:48.670Z,15.51
2023-04-23T09:14:48.660Z,15.67
2023-04-23T09:15:47.731Z,15.76
2023-04-23T09:16:48.714Z,15.60
2023-04-23T09:17:48.693Z,15.46
2023-04-23T09:18:48.620Z,15.46
2023-04-23T09:19:48.591Z,15.52
2023-04-23T09:20:48.581Z,15.64
2023-04-23T09:21:48.559Z,15.72
2023-04-23T09:22:48.554Z,15.97
2023-04-23T09:23:48.531Z,15.85
2023-04-23T09:24:48.529Z,15.46
2023-04-23T09:25:48.517Z,15.59
2023-04-23T09:26:48.503Z,15.67
2023-04-23T09:27:48.481Z,15.72
2023-04-23T09:28:49.526Z,15.88
2023-04-23T09:29:48.457Z,15.88
2023-04-23T09:30:48.455Z,15.96
2023-04-23T09:31:47.869Z,15.99
2023-04-23T09:32:48.508Z,16.01
2023-04-23T09:33:48.387Z,15.76
2023-04-23T09:34:48.384Z,15.39
2023-04-23T09:35:48.377Z,15.24
2023-04-23T09:36:48.356Z,15.26
2023-04-23T09:37:48.653Z,15.48
2023-04-23T09:38:48.330Z,15.61
2023-04-23T09:39:48.328Z,15.49
2023-04-23T09:40:48.311Z,15.46
2023-04-23T09:41:48.298Z,15.49
2023-04-23T09:42:48.273Z,15.67
2023-04-23T09:43:48.255Z,16.06
2023-04-23T09:44:48.244Z,16.18
2023-04-23T09:45:48.250Z,16.37
2023-04-23T09:46:48.229Z,16.70
2023-04-23T09:47:48.238Z,16.95
2023-04-23T09:48:48.194Z,17.18
2023-04-23T09:49:48.179Z,17.74
2023-04-23T09:50:48.174Z,17.94
2023-04-23T09:51:48.156Z,17.97
2023-04-23T09:52:48.142Z,17.70
2023-04-23T09:53:48.136Z,17.59
2023-04-23T09:54:48.113Z,17.35
2023-04-23T09:55:48.101Z,17.44
2023-04-23T09:56:48.121Z,17.69
2023-04-23T09:57:48.068Z,17.88
2023-04-23T09:58:48.061Z,17.79
2023-04-23T09:59:51.477Z,18.06
2023-04-23T10:00:49.031Z,18.72
2023-04-23T10:01:48.058Z,18.73
2023-04-23T10:02:48.173Z,19.08
2023-04-23T10:03:48.096Z,19.70
2023-04-23T10:04:47.565Z,20.68
2023-04-23T10:06:00.459Z,21.45
2023-04-23T10:06:57.944Z,21.90
2023-04-23T10:07:48.929Z,21.67
2023-04-23T10:08:47.890Z,20.24
2023-04-23T10:09:47.902Z,19.66
2023-04-23T10:11:02.468Z,19.75
2023-04-23T10:11:48.922Z,19.55
2023-04-23T10:12:54.868Z,18.94
2023-04-23T10:13:47.780Z,18.33
2023-04-23T10:14:47.835Z,18.46
2023-04-23T10:15:47.911Z,18.40
2023-04-23T10:16:49.316Z,19.23
2023-04-23T10:17:47.831Z,19.61
2023-04-23T10:18:47.005Z,19.78
2023-04-23T10:19:47.388Z,20.21
2023-04-23T10:20:47.765Z,20.23
2023-04-23T10:21:54.699Z,20.58
2023-04-23T10:22:47.769Z,21.08
2023-04-23T10:23:47.008Z,21.66
2023-04-23T10:24:49.432Z,21.02
2023-04-23T10:25:47.703Z,20.20
2023-04-23T10:26:47.678Z,20.86
2023-04-23T10:27:54.011Z,21.66
2023-04-23T10:28:48.302Z,22.71
2023-04-23T10:29:47.632Z,22.38
2023-04-23T10:30:47.633Z,21.53
2023-04-23T10:31:47.651Z,21.59
2023-04-23T10:32:47.670Z,22.60
2023-04-23T10:33:58.144Z,22.78
2023-04-23T10:34:48.633Z,22.39
2023-04-23T10:35:48.693Z,22.67
2023-04-23T10:36:47.537Z,21.41
2023-04-23T10:37:47.521Z,21.56
2023-04-23T10:38:57.256Z,22.04
2023-04-23T10:39:48.799Z,21.38
2023-04-23T10:40:47.497Z,22.02
2023-04-23T10:41:47.472Z,22.23
2023-04-23T10:42:47.464Z,21.24
2023-04-23T10:43:47.434Z,21.19
2023-04-23T10:44:58.004Z,21.34
2023-04-23T10:45:48.424Z,21.60
2023-04-23T10:46:47.439Z,22.50
2023-04-23T10:47:47.489Z,22.67
2023-04-23T10:48:47.374Z,22.16
2023-04-23T10:49:45.962Z,21.76
2023-04-23T10:51:02.351Z,21.41
2023-04-23T10:52:47.331Z,21.20
2023-04-23T10:53:47.368Z,20.03
2023-04-23T10:54:47.303Z,19.76
2023-04-23T10:55:47.319Z,19.88
2023-04-23T10:56:47.277Z,20.47
2023-04-23T10:57:47.269Z,19.90
2023-04-23T10:58:47.257Z,19.63
2023-04-23T10:59:47.232Z,20.16
2023-04-23T11:00:47.231Z,20.59
2023-04-23T11:01:47.215Z,19.80
2023-04-23T11:02:47.330Z,19.40
2023-04-23T11:03:47.376Z,19.05
2023-04-23T11:04:47.248Z,18.68
2023-04-23T11:05:47.167Z,18.65
2023-04-23T11:06:45.841Z,18.50
2023-04-23T11:07:47.122Z,18.65
2023-04-23T11:08:47.106Z,18.74
2023-04-23T11:09:47.103Z,18.62
2023-04-23T11:10:47.092Z,18.76
2023-04-23T11:11:47.064Z,18.82
2023-04-23T11:12:47.052Z,19.94
2023-04-23T11:13:47.042Z,20.64
2023-04-23T11:14:47.044Z,20.24
2023-04-23T11:15:45.901Z,19.88
2023-04-23T11:16:47.120Z,19.21
2023-04-23T11:17:47.025Z,18.91
2023-04-23T11:18:46.985Z,19.75
2023-04-23T11:19:46.962Z,19.86
2023-04-23T11:20:46.976Z,19.70
2023-04-23T11:21:46.940Z,19.86
2023-04-23T11:22:46.920Z,20.79
2023-04-23T11:23:46.911Z,21.61
2023-04-23T11:24:48.892Z,21.19
2023-04-23T11:25:46.899Z,20.06
2023-04-23T11:26:46.908Z,19.43
2023-04-23T11:27:45.881Z,19.93
2023-04-23T11:28:45.885Z,19.58
2023-04-23T11:29:45.982Z,19.40
2023-04-23T11:30:45.897Z,18.87
2023-04-23T11:32:00.950Z,18.68
2023-04-23T11:32:47.897Z,18.92
2023-04-23T11:33:46.777Z,19.08
2023-04-23T11:34:46.757Z,19.28
2023-04-23T11:35:46.757Z,19.11
2023-04-23T11:36:46.729Z,19.17
2023-04-23T11:37:46.718Z,19.76
2023-04-23T11:38:46.701Z,20.31
2023-04-23T11:39:46.689Z,20.51
2023-04-23T11:40:46.691Z,20.98
2023-04-23T11:41:46.658Z,21.56
2023-04-23T11:42:46.677Z,21.76
2023-04-23T11:43:46.649Z,21.91
2023-04-23T11:44:46.658Z,21.81
2023-04-23T11:45:46.626Z,21.06
2023-04-23T11:46:46.598Z,20.87
2023-04-23T11:47:46.606Z,21.35
2023-04-23T11:48:46.587Z,21.34
2023-04-23T11:49:46.930Z,22.27
2023-04-23T11:50:46.562Z,21.26
2023-04-23T11:51:46.541Z,20.90
2023-04-23T11:52:46.520Z,20.81
2023-04-23T11:53:46.508Z,19.90
2023-04-23T11:54:46.510Z,20.39
2023-04-23T11:55:46.639Z,19.84
2023-04-23T11:56:46.466Z,19.97
2023-04-23T11:57:46.468Z,20.81
2023-04-23T11:58:46.442Z,20.61
2023-04-23T11:59:46.430Z,21.08
2023-04-23T12:00:46.421Z,21.11
2023-04-23T12:01:46.410Z,20.71
2023-04-23T12:02:46.542Z,20.33
2023-04-23T12:03:46.476Z,20.35
2023-04-23T12:04:46.436Z,20.83
2023-04-23T12:05:46.508Z,20.71
2023-04-23T12:06:46.387Z,20.41
2023-04-23T12:07:46.317Z,19.93
2023-04-23T12:08:46.303Z,19.60
2023-04-23T12:09:46.292Z,19.72
2023-04-23T12:10:46.264Z,19.86
2023-04-23T12:11:46.278Z,20.00
2023-04-23T12:12:46.253Z,20.56
2023-04-23T12:13:46.236Z,20.65
2023-04-23T12:14:46.263Z,21.05
2023-04-23T12:15:46.274Z,21.50
2023-04-23T12:16:46.206Z,21.36
2023-04-23T12:17:46.218Z,21.56
2023-04-23T12:18:46.179Z,21.69
2023-04-23T12:19:46.323Z,21.36
2023-04-23T12:20:46.153Z,20.98
2023-04-23T12:21:46.144Z,20.53
2023-04-23T12:22:46.137Z,20.43
2023-04-23T12:23:45.706Z,20.49
2023-04-23T12:24:45.593Z,21.19
2023-04-23T12:25:46.092Z,21.71
2023-04-23T12:26:46.207Z,21.92
2023-04-23T12:27:46.069Z,21.79
2023-04-23T12:28:46.041Z,22.17
2023-04-23T12:29:46.017Z,22.37
2023-04-23T12:30:46.009Z,22.75
2023-04-23T12:31:45.215Z,21.82
2023-04-23T12:32:45.999Z,22.02
2023-04-23T12:33:45.548Z,21.61
2023-04-23T12:34:45.114Z,22.46
2023-04-23T12:35:45.936Z,22.44
2023-04-23T12:36:46.030Z,22.17
2023-04-23T12:37:45.920Z,22.83
2023-04-23T12:38:45.909Z,22.27
2023-04-23T12:39:44.599Z,21.57
2023-04-23T12:40:45.873Z,21.72
2023-04-23T12:41:45.883Z,21.54
2023-04-23T12:42:45.883Z,21.75
2023-04-23T12:43:45.833Z,22.37
2023-04-23T12:44:45.842Z,22.12
2023-04-23T12:45:45.854Z,22.71
2023-04-23T12:46:45.834Z,22.75
2023-04-23T12:47:45.868Z,22.89
2023-04-23T12:48:45.778Z,22.49
2023-04-23T12:49:45.896Z,22.53
2023-04-23T12:50:45.759Z,22.50
2023-04-23T12:51:45.787Z,22.01
2023-04-23T12:52:45.709Z,22.09
2023-04-23T12:53:45.723Z,21.90